Time;durP1;ratioP1;P1;durP2;ratioP2;P2;SDS_P1;SDS_P2;PMS_P1;PMS_P2;Temp;Humidity;BMP_temperature;BMP_pressure;BME280_temperature;BME280_humidity;BME280_pressure;Samples;Min_cycle;Max_cycle;Signal;HPM_P1;HPM_P2
2022/03/31 00:00:18;;;;;;;5.93;4.22;;;7.00;95.30;;;;;;5056264;28;20070;-78
2022/03/31 00:02:44;;;;;;;6.22;4.85;;;7.00;94.90;;;;;;5055608;28;20056;-78
2022/03/31 00:05:11;;;;;;;5.57;4.07;;;6.90;95.20;;;;;;5055799;28;20033;-79
2022/03/31 00:07:52;;;;;;;6.68;4.50;;;7.10;95.20;;;;;;5056109;28;20086;-79
2022/03/31 00:10:31;;;;;;;8.48;4.85;;;7.20;95.30;;;;;;5055267;28;20057;-78
2022/03/31 00:12:59;;;;;;;6.50;4.65;;;7.40;94.80;;;;;;5055686;28;20376;-78
2022/03/31 00:15:26;;;;;;;7.90;5.70;;;7.50;94.60;;;;;;5055599;28;20052;-79
2022/03/31 00:17:53;;;;;;;7.63;5.10;;;7.60;94.20;;;;;;5055709;28;20534;-78
2022/03/31 00:33:46;;;;;;;7.78;6.20;;;7.10;95.60;;;;;;5055201;28;20055;-79
2022/03/31 00:36:13;;;;;;;9.45;5.97;;;7.20;95.30;;;;;;5055346;28;20024;-78
2022/03/31 00:38:38;;;;;;;9.02;6.50;;;7.00;95.40;;;;;;5055530;28;20104;-78
2022/03/31 00:41:04;;;;;;;7.95;5.65;;;7.10;95.80;;;;;;5055312;28;20490;-82
2022/03/31 00:43:30;;;;;;;7.25;6.15;;;7.20;96.00;;;;;;5055335;28;20373;-82
2022/03/31 00:45:56;;;;;;;8.30;6.30;;;7.10;95.40;;;;;;5055336;28;20060;-82
2022/03/31 00:48:22;;;;;;;9.20;6.60;;;7.00;95.90;;;;;;5055067;28;20091;-82
2022/03/31 00:50:48;;;;;;;9.80;6.03;;;7.00;96.20;;;;;;5055314;28;20021;-83
2022/03/31 00:53:15;;;;;;;10.10;6.32;;;6.90;96.00;;;;;;5055234;28;20033;-83
2022/03/31 00:55:44;;;;;;;8.20;6.15;;;7.00;96.00;;;;;;5054687;28;20480;-83
2022/03/31 00:58:10;;;;;;;11.27;6.20;;;6.90;96.30;;;;;;5054754;28;20033;-83
2022/03/31 01:00:36;;;;;;;8.73;7.30;;;6.80;96.10;;;;;;5054755;28;20025;-84
2022/03/31 01:03:03;;;;;;;10.38;7.18;;;6.70;96.50;;;;;;5054917;28;20032;-84
2022/03/31 01:05:29;;;;;;;7.47;6.50;;;6.70;96.70;;;;;;5054891;28;20021;-83
2022/03/31 01:07:55;;;;;;;9.02;6.78;;;6.80;96.60;;;;;;5054713;28;20035;-83
2022/03/31 01:10:21;;;;;;;8.68;6.93;;;6.70;96.50;;;;;;5054387;28;20562;-83
2022/03/31 01:12:47;;;;;;;10.65;7.20;;;6.70;96.80;;;;;;5054881;28;20033;-83
2022/03/31 01:15:19;;;;;;;10.98;6.50;;;6.80;96.70;;;;;;5054339;28;20079;-83
2022/03/31 01:17:48;;;;;;;7.50;5.95;;;6.80;96.40;;;;;;5054370;28;20021;-83
2022/03/31 01:20:22;;;;;;;8.13;5.80;;;6.80;96.60;;;;;;5054816;28;20130;-83
2022/03/31 01:22:50;;;;;;;10.55;6.22;;;6.90;96.40;;;;;;5054652;28;20391;-83
2022/03/31 01:25:16;;;;;;;8.52;5.47;;;7.00;96.20;;;;;;5054206;28;20094;-84
2022/03/31 01:27:44;;;;;;;7.22;5.88;;;6.90;96.60;;;;;;5054334;28;20029;-83
2022/03/31 01:30:15;;;;;;;7.32;5.75;;;6.90;96.10;;;;;;5054585;28;20021;-83
2022/03/31 01:32:41;;;;;;;7.10;5.85;;;6.80;96.30;;;;;;5054198;28;20021;-83
2022/03/31 01:35:08;;;;;;;6.07;5.03;;;6.60;96.60;;;;;;5054451;28;20032;-83
2022/03/31 01:37:34;;;;;;;6.35;5.00;;;6.60;96.80;;;;;;5054259;28;20096;-83
2022/03/31 01:39:59;;;;;;;7.57;5.10;;;6.70;96.80;;;;;;5054201;28;20051;-83
2022/03/31 01:42:27;;;;;;;5.85;4.75;;;6.90;96.40;;;;;;5054120;28;20033;-83
2022/03/31 01:44:53;;;;;;;5.00;3.72;;;6.80;96.30;;;;;;5053819;28;20108;-84
2022/03/31 01:47:19;;;;;;;5.47;3.53;;;6.80;96.30;;;;;;5054112;28;20045;-83
2022/03/31 01:49:45;;;;;;;3.95;2.97;;;6.80;96.00;;;;;;5053628;28;20090;-83
2022/03/31 01:52:11;;;;;;;4.18;3.20;;;6.60;96.30;;;;;;5053968;28;20104;-83
2022/03/31 01:54:36;;;;;;;3.60;3.30;;;6.60;96.40;;;;;;5053737;28;20104;-82
2022/03/31 01:57:03;;;;;;;3.90;3.08;;;6.50;96.50;;;;;;5053436;28;20036;-80
2022/03/31 01:59:34;;;;;;;4.43;2.88;;;6.60;96.40;;;;;;5053044;28;20495;-79
2022/03/31 02:02:00;;;;;;;3.40;2.40;;;6.70;96.30;;;;;;5053935;28;20091;-79
2022/03/31 02:04:26;;;;;;;3.67;2.97;;;6.50;96.20;;;;;;5053422;28;20024;-79
2022/03/31 02:06:52;;;;;;;3.65;2.58;;;6.30;96.40;;;;;;5053647;28;20119;-79
2022/03/31 02:09:17;;;;;;;2.70;2.50;;;6.10;96.90;;;;;;5053439;28;20037;-79
2022/03/31 02:11:45;;;;;;;3.00;2.60;;;5.90;97.40;;;;;;5053792;28;20404;-78
2022/03/31 02:14:12;;;;;;;2.30;2.10;;;6.00;97.50;;;;;;5053708;28;20384;-78
2022/03/31 02:16:38;;;;;;;2.75;2.17;;;6.00;97.50;;;;;;5053435;28;20025;-77
2022/03/31 02:19:03;;;;;;;2.85;2.30;;;6.00;97.40;;;;;;5053500;28;20021;-78
2022/03/31 02:21:29;;;;;;;3.33;2.10;;;6.10;97.20;;;;;;5053293;28;20041;-78
2022/03/31 02:23:55;;;;;;;2.65;1.90;;;6.00;97.40;;;;;;5053312;28;20029;-78
2022/03/31 02:26:20;;;;;;;2.20;2.00;;;5.80;97.50;;;;;;5053187;28;20025;-79
2022/03/31 02:28:46;;;;;;;2.67;2.03;;;5.80;97.60;;;;;;5053352;28;20128;-79
2022/03/31 02:31:12;;;;;;;2.58;1.60;;;5.50;97.90;;;;;;5053252;28;20044;-79
2022/03/31 02:33:38;;;;;;;2.28;1.65;;;5.40;98.50;;;;;;5053498;28;20116;-79
2022/03/31 02:36:05;;;;;;;2.05;1.58;;;5.60;98.30;;;;;;5053432;28;20025;-79
2022/03/31 02:38:31;;;;;;;3.90;1.63;;;5.60;98.40;;;;;;5053182;28;20032;-79
2022/03/31 02:40:56;;;;;;;1.40;1.15;;;5.90;98.50;;;;;;5052944;28;20033;-79
2022/03/31 02:43:22;;;;;;;1.75;1.00;;;5.90;97.10;;;;;;5053496;28;20037;-79
2022/03/31 02:45:47;;;;;;;2.97;1.08;;;5.80;97.40;;;;;;5053379;28;20025;-79
2022/03/31 02:48:13;;;;;;;1.80;1.08;;;5.90;97.30;;;;;;5053233;28;20035;-78
2022/03/31 02:50:39;;;;;;;1.73;1.20;;;5.80;97.10;;;;;;5052937;28;20032;-78
2022/03/31 02:55:49;;;;;;;2.53;1.00;;;5.40;98.00;;;;;;5057293;28;20479;-79
2022/03/31 02:58:14;;;;;;;1.00;0.85;;;5.40;98.10;;;;;;5057221;28;20056;-79
2022/03/31 03:00:43;;;;;;;1.42;0.82;;;5.50;97.90;;;;;;5057227;28;20060;-79
2022/03/31 03:03:11;;;;;;;2.85;1.20;;;5.60;97.70;;;;;;5057203;28;20108;-79
2022/03/31 03:05:36;;;;;;;1.60;0.82;;;5.40;97.60;;;;;;5057057;28;20021;-79
2022/03/31 03:08:03;;;;;;;1.05;0.93;;;5.30;98.00;;;;;;5056932;28;20029;-79
2022/03/31 03:10:29;;;;;;;1.90;1.00;;;5.30;98.10;;;;;;5056706;28;20053;-79
2022/03/31 03:12:57;;;;;;;1.83;1.02;;;5.10;98.30;;;;;;5057126;28;20037;-79
2022/03/31 03:15:25;;;;;;;1.10;0.80;;;5.00;98.70;;;;;;5056963;28;20435;-79
2022/03/31 03:17:50;;;;;;;4.20;1.00;;;4.90;98.80;;;;;;5057034;28;20029;-78
2022/03/31 03:20:16;;;;;;;1.75;0.80;;;4.80;99.20;;;;;;5056778;28;20025;-77
2022/03/31 03:22:43;;;;;;;1.58;0.93;;;4.90;99.30;;;;;;5056562;28;20434;-76
2022/03/31 03:25:10;;;;;;;1.60;1.00;;;4.80;99.10;;;;;;5056878;28;20107;-77
2022/03/31 03:27:35;;;;;;;1.23;0.88;;;4.80;99.40;;;;;;5056850;28;20132;-77
2022/03/31 03:30:01;;;;;;;1.30;1.10;;;4.90;99.60;;;;;;5056810;28;20489;-77
2022/03/31 03:32:26;;;;;;;1.00;0.70;;;5.00;99.30;;;;;;5056528;28;20033;-77
2022/03/31 03:34:52;;;;;;;3.00;0.95;;;5.10;99.20;;;;;;5056894;28;20451;-77
2022/03/31 03:37:17;;;;;;;1.25;0.77;;;5.20;99.30;;;;;;5056625;28;20041;-77
2022/03/31 03:39:44;;;;;;;0.85;0.60;;;5.30;98.80;;;;;;5056357;28;20029;-76
2022/03/31 03:42:10;;;;;;;1.75;0.70;;;5.30;98.50;;;;;;5056374;28;20586;-77
2022/03/31 03:44:35;;;;;;;1.60;0.80;;;5.30;99.20;;;;;;5056431;28;20112;-77
2022/03/31 03:47:01;;;;;;;1.75;0.60;;;5.30;98.50;;;;;;5056268;28;20116;-77
2022/03/31 03:49:27;;;;;;;0.70;0.50;;;5.30;98.80;;;;;;5056139;28;20029;-77
2022/03/31 03:51:52;;;;;;;1.45;0.80;;;5.30;98.60;;;;;;5056145;28;20028;-77
2022/03/31 03:54:18;;;;;;;2.67;1.15;;;5.30;98.70;;;;;;5056162;28;20031;-76
2022/03/31 03:56:43;;;;;;;1.38;0.75;;;5.30;98.70;;;;;;5056331;28;20475;-78
2022/03/31 03:59:09;;;;;;;1.75;1.02;;;5.10;98.70;;;;;;5055755;28;20456;-79
2022/03/31 04:01:35;;;;;;;1.10;0.80;;;5.00;99.20;;;;;;5056232;28;20083;-79
2022/03/31 04:04:00;;;;;;;1.95;0.98;;;4.90;99.50;;;;;;5055777;28;20033;-79
2022/03/31 04:06:26;;;;;;;1.30;1.00;;;4.70;99.60;;;;;;5055597;28;20028;-78
2022/03/31 04:08:52;;;;;;;2.17;1.17;;;4.70;99.90;;;;;;5055593;28;20036;-78
2022/03/31 04:11:17;;;;;;;1.60;1.17;;;4.50;99.90;;;;;;5056160;28;20037;-78
2022/03/31 04:13:46;;;;;;;1.48;1.00;;;4.50;99.90;;;;;;5055838;28;20087;-78
2022/03/31 04:16:12;;;;;;;1.45;0.90;;;4.40;99.90;;;;;;5055672;28;20029;-78
2022/03/31 04:18:38;;;;;;;1.50;1.00;;;4.30;99.90;;;;;;5055890;28;20082;-78
2022/03/31 04:21:04;;;;;;;1.17;0.90;;;4.50;99.90;;;;;;5055500;28;20032;-78
2022/03/31 04:23:29;;;;;;;1.40;0.90;;;4.60;99.90;;;;;;5055678;28;20404;-78
2022/03/31 04:25:55;;;;;;;0.93;0.80;;;4.50;99.90;;;;;;5055733;28;20453;-78
2022/03/31 04:28:21;;;;;;;1.67;0.80;;;4.60;99.90;;;;;;5055202;28;20461;-78
2022/03/31 04:30:46;;;;;;;0.90;0.70;;;4.50;99.90;;;;;;5055273;28;20038;-78
2022/03/31 04:33:12;;;;;;;0.82;0.60;;;4.60;99.90;;;;;;5055662;28;20115;-78
2022/03/31 04:35:38;;;;;;;0.88;0.63;;;4.70;99.90;;;;;;5055315;28;20025;-78
2022/03/31 04:38:04;;;;;;;0.65;0.40;;;5.00;99.90;;;;;;5055285;28;20033;-78
2022/03/31 04:40:30;;;;;;;0.77;0.30;;;5.10;99.40;;;;;;5055442;28;20055;-78
2022/03/31 04:42:55;;;;;;;0.60;0.40;;;5.20;99.40;;;;;;5055158;28;20083;-78
2022/03/31 04:45:21;;;;;;;0.70;0.40;;;5.20;98.60;;;;;;5055411;28;20066;-78
2022/03/31 04:47:47;;;;;;;0.60;0.40;;;5.10;98.80;;;;;;5055041;28;20671;-78
2022/03/31 04:50:14;;;;;;;0.73;0.50;;;5.00;98.70;;;;;;5054871;28;20029;-78
2022/03/31 04:52:41;;;;;;;0.68;0.50;;;5.00;99.10;;;;;;5055375;28;20025;-78
2022/03/31 04:55:07;;;;;;;0.77;0.50;;;5.00;99.00;;;;;;5055180;28;20041;-78
2022/03/31 04:57:33;;;;;;;1.08;0.82;;;5.10;98.70;;;;;;5055089;28;20021;-78
2022/03/31 04:59:59;;;;;;;1.10;0.80;;;4.90;98.80;;;;;;5054711;28;20087;-78
2022/03/31 05:02:24;;;;;;;1.27;0.60;;;4.80;98.90;;;;;;5054949;28;20037;-78
2022/03/31 05:04:50;;;;;;;1.52;0.90;;;4.90;99.10;;;;;;5054675;28;20025;-78
2022/03/31 05:07:15;;;;;;;0.80;0.63;;;5.00;99.30;;;;;;5054850;28;20032;-79
2022/03/31 05:09:41;;;;;;;1.40;1.05;;;5.10;98.60;;;;;;5054537;28;20044;-77
2022/03/31 05:12:08;;;;;;;1.55;0.93;;;5.00;98.80;;;;;;5054615;28;20029;-77
2022/03/31 05:14:34;;;;;;;1.55;0.80;;;5.00;98.90;;;;;;5054116;28;20053;-77
2022/03/31 05:17:01;;;;;;;0.90;0.77;;;5.10;98.90;;;;;;5053543;28;20031;-77
2022/03/31 05:19:27;;;;;;;2.03;1.13;;;5.20;98.70;;;;;;5054527;28;20039;-77
2022/03/31 05:21:53;;;;;;;1.00;0.90;;;5.10;98.50;;;;;;5054339;28;20029;-80
2022/03/31 05:24:18;;;;;;;1.35;0.90;;;4.80;99.10;;;;;;5054341;28;20032;-76
2022/03/31 05:26:45;;;;;;;1.13;0.90;;;4.60;99.80;;;;;;5053980;28;20024;-77
2022/03/31 05:29:13;;;;;;;1.45;1.02;;;4.50;99.90;;;;;;5054044;28;20021;-76
2022/03/31 05:31:39;;;;;;;1.20;1.10;;;4.40;99.90;;;;;;5054233;28;20036;-75
2022/03/31 05:34:05;;;;;;;1.33;1.00;;;4.30;99.90;;;;;;5054348;28;20113;-78
2022/03/31 05:36:31;;;;;;;1.20;1.00;;;4.40;99.90;;;;;;5053871;28;20483;-77
2022/03/31 05:38:56;;;;;;;1.40;1.30;;;4.70;99.90;;;;;;5054223;28;20055;-77
2022/03/31 05:41:24;;;;;;;2.42;1.38;;;4.70;99.90;;;;;;5053783;28;20032;-76
2022/03/31 05:43:49;;;;;;;2.92;1.38;;;5.00;99.90;;;;;;5053795;28;20066;-76
2022/03/31 05:46:15;;;;;;;1.38;1.27;;;4.80;99.60;;;;;;5052931;28;20410;-77
2022/03/31 05:48:41;;;;;;;2.42;0.90;;;5.00;99.80;;;;;;5053603;28;20032;-80
2022/03/31 05:51:07;;;;;;;1.70;1.15;;;5.10;99.70;;;;;;5053220;28;20120;-79
2022/03/31 05:53:33;;;;;;;1.70;0.90;;;5.40;99.90;;;;;;5052902;28;20037;-79
2022/03/31 05:55:59;;;;;;;4.10;1.77;;;5.50;98.90;;;;;;5053049;28;20045;-77
2022/03/31 05:58:24;;;;;;;1.30;1.10;;;5.50;98.70;;;;;;5053161;28;20111;-78
2022/03/31 06:00:53;;;;;;;1.42;1.10;;;5.40;97.80;;;;;;5052953;28;20436;-77
2022/03/31 06:03:22;;;;;;;1.58;1.20;;;5.10;98.20;;;;;;5052852;28;20477;-77
2022/03/31 06:05:48;;;;;;;0.90;0.70;;;5.10;99.20;;;;;;5052869;28;20033;-75
2022/03/31 06:08:15;;;;;;;4.18;0.65;;;5.40;99.80;;;;;;5053011;28;20488;-76
2022/03/31 06:10:41;;;;;;;0.93;0.70;;;5.70;98.90;;;;;;5052583;28;20076;-77
2022/03/31 06:13:06;;;;;;;1.05;0.80;;;5.70;97.80;;;;;;5052848;28;20480;-78
2022/03/31 06:15:34;;;;;;;1.13;0.52;;;5.90;97.80;;;;;;5051991;28;20032;-79
2022/03/31 06:18:00;;;;;;;0.68;0.55;;;6.00;97.70;;;;;;5050079;28;20360;-83
2022/03/31 06:20:28;;;;;;;0.80;0.60;;;6.20;97.60;;;;;;5051977;28;20032;-78
2022/03/31 06:22:53;;;;;;;1.70;0.60;;;6.30;97.20;;;;;;5050627;28;20056;-77
2022/03/31 06:25:20;;;;;;;1.77;0.75;;;6.40;96.90;;;;;;5051836;28;20374;-79
2022/03/31 06:27:47;;;;;;;1.90;0.60;;;6.50;96.40;;;;;;5050941;28;20039;-77
2022/03/31 06:30:13;;;;;;;1.17;0.80;;;6.50;95.60;;;;;;5049383;28;20021;-77
2022/03/31 06:32:39;;;;;;;0.90;0.70;;;6.40;95.60;;;;;;5050751;28;20033;-78
2022/03/31 06:35:05;;;;;;;1.20;0.70;;;6.20;95.70;;;;;;5052390;28;20040;-80
2022/03/31 06:37:31;;;;;;;2.67;1.00;;;6.00;96.30;;;;;;5051255;28;20056;-80
2022/03/31 06:39:57;;;;;;;1.33;0.57;;;6.40;99.90;;;;;;5052235;28;20021;-90
2022/03/31 06:42:22;;;;;;;0.70;0.40;;;6.80;99.10;;;;;;5051992;28;20078;-84
2022/03/31 06:44:48;;;;;;;1.35;0.80;;;6.90;97.10;;;;;;5052042;28;20112;-85
2022/03/31 06:47:13;;;;;;;2.95;0.60;;;6.90;96.00;;;;;;5052152;28;20029;-81
2022/03/31 06:49:39;;;;;;;1.92;0.40;;;6.90;96.20;;;;;;5051888;28;20112;-81
2022/03/31 06:52:05;;;;;;;0.95;0.75;;;7.00;96.10;;;;;;5051444;28;20041;-79
2022/03/31 06:54:31;;;;;;;0.98;0.70;;;7.10;95.60;;;;;;5051606;28;20024;-79
2022/03/31 06:56:57;;;;;;;0.65;0.40;;;7.10;94.90;;;;;;5051702;28;20075;-80
2022/03/31 06:59:23;;;;;;;0.57;0.30;;;7.10;95.50;;;;;;5051688;28;20033;-80
2022/03/31 07:01:48;;;;;;;0.85;0.60;;;7.30;95.60;;;;;;5051886;28;20380;-80
2022/03/31 07:04:15;;;;;;;1.55;0.70;;;7.30;94.50;;;;;;5051745;28;20138;-80
2022/03/31 07:06:41;;;;;;;0.40;0.30;;;7.10;94.20;;;;;;5051619;28;20060;-78
2022/03/31 07:09:06;;;;;;;2.10;0.70;;;7.00;94.40;;;;;;5051484;28;20068;-74
2022/03/31 07:11:34;;;;;;;0.80;0.60;;;6.80;94.20;;;;;;5051654;28;20032;-81
2022/03/31 07:14:04;;;;;;;1.88;0.73;;;6.60;94.70;;;;;;5051415;28;20025;-80
2022/03/31 07:16:31;;;;;;;1.98;0.73;;;6.30;95.10;;;;;;5051123;28;20021;-80
2022/03/31 07:18:58;;;;;;;2.35;0.90;;;6.20;95.60;;;;;;5051269;28;20540;-77
2022/03/31 07:21:24;;;;;;;1.00;0.75;;;6.20;95.90;;;;;;5051448;28;20076;-77
2022/03/31 07:23:52;;;;;;;1.40;0.90;;;6.20;96.50;;;;;;5051361;28;20040;-76
2022/03/31 07:26:18;;;;;;;1.25;0.70;;;6.30;95.90;;;;;;5049145;28;20056;-75
2022/03/31 07:28:44;;;;;;;1.00;0.68;;;6.20;95.90;;;;;;5058796;28;20074;-80
2022/03/31 07:31:09;;;;;;;1.05;0.88;;;6.10;96.20;;;;;;5072976;28;20035;-78
2022/03/31 07:33:35;;;;;;;0.98;0.57;;;6.20;96.10;;;;;;5055685;28;20024;-78
2022/03/31 07:36:00;;;;;;;0.60;0.40;;;6.20;96.80;;;;;;5052301;28;20028;-80
2022/03/31 07:38:26;;;;;;;0.73;0.57;;;6.50;96.90;;;;;;5054852;28;20440;-81
2022/03/31 07:40:52;;;;;;;0.90;0.63;;;6.60;96.20;;;;;;5055613;28;20076;-79
2022/03/31 07:43:17;;;;;;;1.17;1.08;;;6.60;95.60;;;;;;5056118;28;20033;-77
2022/03/31 07:45:45;;;;;;;0.80;0.70;;;6.30;95.50;;;;;;5056333;28;20480;-83
2022/03/31 07:48:15;;;;;;;0.90;0.70;;;6.00;96.10;;;;;;5056293;28;20433;-78
2022/03/31 07:50:41;;;;;;;1.00;0.70;;;5.70;96.80;;;;;;5055884;28;20048;-79
2022/03/31 07:53:09;;;;;;;2.25;1.10;;;5.80;97.50;;;;;;5055919;28;20354;-80
2022/03/31 07:55:34;;;;;;;1.00;0.90;;;6.00;97.50;;;;;;5055687;28;20049;-80
2022/03/31 07:58:00;;;;;;;0.90;0.70;;;6.00;97.00;;;;;;5055916;28;20064;-80
2022/03/31 08:00:26;;;;;;;1.95;1.05;;;5.70;97.20;;;;;;5057358;28;20036;-80
2022/03/31 08:02:52;;;;;;;1.75;0.88;;;5.70;97.70;;;;;;5055388;28;20037;-79
2022/03/31 08:05:23;;;;;;;1.05;0.95;;;5.60;97.80;;;;;;5055911;28;20468;-78
2022/03/31 08:07:49;;;;;;;1.40;0.90;;;5.50;98.40;;;;;;5054931;28;20039;-79
2022/03/31 08:10:15;;;;;;;2.05;1.20;;;5.50;98.30;;;;;;5053681;28;20049;-78
2022/03/31 08:12:41;;;;;;;0.80;0.52;;;5.50;98.30;;;;;;5054139;28;20021;-78
2022/03/31 08:15:08;;;;;;;1.40;1.30;;;5.60;98.80;;;;;;5054212;28;20388;-82
2022/03/31 08:17:34;;;;;;;1.00;0.88;;;5.40;98.40;;;;;;5054505;28;20052;-82
2022/03/31 08:20:00;;;;;;;1.45;0.90;;;5.40;98.80;;;;;;5054814;28;20408;-78
2022/03/31 08:22:26;;;;;;;1.13;0.95;;;5.50;98.80;;;;;;5053837;28;20083;-79
2022/03/31 08:24:52;;;;;;;2.78;1.23;;;5.60;98.80;;;;;;5054249;28;20028;-79
2022/03/31 08:27:18;;;;;;;1.15;1.05;;;5.60;98.50;;;;;;5054394;28;20055;-79
2022/03/31 08:29:44;;;;;;;1.75;1.10;;;5.50;98.80;;;;;;5053716;28;20028;-79
2022/03/31 08:32:10;;;;;;;1.00;0.90;;;5.40;98.90;;;;;;5053887;28;20487;-78
2022/03/31 08:34:36;;;;;;;1.17;1.08;;;5.50;99.00;;;;;;5051428;28;20379;-78
2022/03/31 08:37:03;;;;;;;0.90;0.80;;;5.40;99.00;;;;;;5052991;28;20025;-79
2022/03/31 08:39:28;;;;;;;1.42;0.95;;;5.50;99.40;;;;;;5053862;28;20029;-79
2022/03/31 08:41:54;;;;;;;1.45;0.90;;;5.60;99.00;;;;;;5053460;28;20426;-79
2022/03/31 08:44:21;;;;;;;1.25;0.90;;;5.70;98.80;;;;;;5053934;28;20107;-79
2022/03/31 08:46:49;;;;;;;1.13;1.00;;;5.50;98.60;;;;;;5053095;28;20032;-79
2022/03/31 08:49:15;;;;;;;1.27;1.00;;;5.60;99.10;;;;;;5054058;28;20036;-79
2022/03/31 08:51:43;;;;;;;0.85;0.70;;;5.50;99.20;;;;;;5052414;28;20507;-79
2022/03/31 08:54:09;;;;;;;1.30;0.93;;;5.60;99.30;;;;;;5053824;28;20028;-79
2022/03/31 08:56:36;;;;;;;1.35;1.23;;;5.70;99.10;;;;;;5053648;28;20086;-78
2022/03/31 08:59:02;;;;;;;2.03;1.20;;;5.70;98.90;;;;;;5051876;28;20025;-79
2022/03/31 09:01:30;;;;;;;1.40;1.25;;;5.70;98.70;;;;;;5054624;28;20049;-78
2022/03/31 09:03:55;;;;;;;1.25;1.08;;;5.80;98.70;;;;;;5054913;28;20029;-78
2022/03/31 09:06:23;;;;;;;1.38;1.27;;;5.80;98.70;;;;;;5053917;28;20028;-79
2022/03/31 09:09:00;;;;;;;1.30;1.10;;;5.90;98.60;;;;;;5054502;28;20025;-78
2022/03/31 09:11:27;;;;;;;1.40;1.30;;;5.80;98.40;;;;;;5054950;28;20384;-78
2022/03/31 09:13:58;;;;;;;1.55;1.15;;;5.80;98.40;;;;;;5054868;28;20503;-78
2022/03/31 09:16:39;;;;;;;1.60;1.50;;;5.70;98.60;;;;;;5054244;28;20021;-79
2022/03/31 09:19:15;;;;;;;1.73;1.63;;;5.70;98.70;;;;;;5034501;28;20480;-79
2022/03/31 09:21:54;;;;;;;1.70;1.60;;;5.70;98.90;;;;;;5034408;28;20021;-79
2022/03/31 09:24:22;;;;;;;1.85;1.75;;;5.80;99.10;;;;;;5034642;28;20029;-76
2022/03/31 09:26:49;;;;;;;1.23;1.13;;;5.90;98.80;;;;;;5034636;28;20096;-78
2022/03/31 09:29:15;;;;;;;1.70;1.52;;;5.80;98.80;;;;;;5034030;28;20038;-76
2022/03/31 09:31:41;;;;;;;1.80;1.50;;;5.80;98.50;;;;;;5034228;28;20477;-76
2022/03/31 09:34:08;;;;;;;1.83;1.67;;;5.80;98.80;;;;;;5034366;28;20022;-77
2022/03/31 09:36:39;;;;;;;1.77;1.67;;;5.90;98.70;;;;;;5034263;28;20025;-76
2022/03/31 09:39:08;;;;;;;1.48;1.38;;;5.90;98.50;;;;;;5034191;28;20413;-76
2022/03/31 09:41:37;;;;;;;2.00;1.23;;;5.90;98.50;;;;;;5033993;28;20040;-78
2022/03/31 09:44:06;;;;;;;2.28;1.70;;;6.00;98.80;;;;;;5034391;28;20124;-75
2022/03/31 09:46:33;;;;;;;1.67;1.25;;;6.30;98.70;;;;;;5033869;28;20028;-77
2022/03/31 09:49:10;;;;;;;1.60;1.30;;;6.50;98.30;;;;;;5034187;28;20079;-76
2022/03/31 09:51:35;;;;;;;1.63;1.52;;;6.60;97.90;;;;;;5033679;28;20112;-77
2022/03/31 09:54:01;;;;;;;2.05;1.80;;;6.60;97.40;;;;;;5042399;28;20112;-78
2022/03/31 09:56:27;;;;;;;1.92;1.70;;;6.40;97.20;;;;;;5052788;28;20504;-77
2022/03/31 09:58:59;;;;;;;2.35;1.67;;;6.20;97.50;;;;;;5052758;28;20028;-79
2022/03/31 10:01:24;;;;;;;2.20;1.98;;;6.20;97.70;;;;;;5051725;28;20492;-79
2022/03/31 10:03:54;;;;;;;3.70;2.42;;;6.10;97.90;;;;;;5052210;28;20044;-76
2022/03/31 10:06:20;;;;;;;3.08;2.88;;;6.10;98.10;;;;;;5051748;28;20032;-78
2022/03/31 10:08:47;;;;;;;4.03;3.28;;;6.10;98.10;;;;;;5052491;28;20025;-77
2022/03/31 10:11:13;;;;;;;3.40;3.08;;;6.10;98.10;;;;;;5031765;28;20041;-76
2022/03/31 10:14:01;;;;;;;2.80;2.60;;;6.00;98.00;;;;;;5031687;28;20026;-75
2022/03/31 10:16:37;;;;;;;3.92;3.28;;;5.80;98.10;;;;;;5030440;28;20033;-78
2022/03/31 10:19:03;;;;;;;3.38;3.08;;;5.70;98.50;;;;;;5032499;28;20187;-77
2022/03/31 10:21:30;;;;;;;3.35;3.05;;;5.60;99.20;;;;;;5031069;28;20447;-77
2022/03/31 10:26:40;;;;;;;2.88;2.67;;;5.50;99.40;;;;;;5031939;28;20033;-77
2022/03/31 10:29:14;;;;;;;3.30;3.00;;;5.60;99.70;;;;;;5032007;28;20029;-78
2022/03/31 10:31:42;;;;;;;3.13;2.83;;;5.60;99.60;;;;;;5031605;28;20048;-78
2022/03/31 10:34:09;;;;;;;3.75;2.70;;;5.50;99.60;;;;;;5031254;28;20552;-78
2022/03/31 10:36:45;;;;;;;3.92;2.63;;;5.50;99.70;;;;;;5032011;28;20025;-80
2022/03/31 10:39:22;;;;;;;2.50;2.17;;;5.70;99.80;;;;;;5030309;28;20179;-76
2022/03/31 10:42:04;;;;;;;3.25;2.95;;;5.80;99.70;;;;;;5030889;28;20072;-75
2022/03/31 10:44:29;;;;;;;2.58;1.98;;;5.80;99.80;;;;;;5030129;28;20034;-76
2022/03/31 10:47:04;;;;;;;3.33;2.53;;;5.90;99.30;;;;;;5031910;28;20038;-76
2022/03/31 10:49:30;;;;;;;3.25;1.95;;;5.80;99.50;;;;;;5031583;28;20127;-77
2022/03/31 10:51:57;;;;;;;3.05;2.70;;;5.80;99.50;;;;;;5031289;28;20381;-75
2022/03/31 10:54:33;;;;;;;3.42;3.13;;;5.80;99.50;;;;;;5032082;28;20021;-75
2022/03/31 10:57:09;;;;;;;2.67;2.47;;;5.70;99.70;;;;;;5031575;28;20369;-76
2022/03/31 10:59:36;;;;;;;2.80;2.28;;;5.70;99.90;;;;;;5031619;28;20029;-87
2022/03/31 11:02:14;;;;;;;3.03;2.75;;;5.60;99.90;;;;;;5031720;28;20052;-75
2022/03/31 11:04:43;;;;;;;2.80;2.60;;;5.60;99.90;;;;;;5031434;28;20022;-76
2022/03/31 11:07:16;;;;;;;2.65;2.45;;;5.50;99.90;;;;;;5031454;28;20026;-76
2022/03/31 11:09:43;;;;;;;;;;;5.40;99.90;;;;;;5039316;28;20057;-76
2022/03/31 11:12:19;;;;;;;2.40;2.20;;;5.50;99.90;;;;;;5051226;28;20379;-77
2022/03/31 11:15:00;;;;;;;2.65;2.45;;;5.60;99.90;;;;;;5052987;28;20480;-77
2022/03/31 11:17:27;;;;;;;5.57;2.15;;;5.40;99.90;;;;;;5055358;28;20035;-78
2022/03/31 11:19:55;;;;;;;1.65;1.50;;;5.20;99.90;;;;;;5055373;28;20033;-79
2022/03/31 11:22:29;;;;;;;1.98;1.73;;;5.20;99.90;;;;;;5055458;28;20120;-77
2022/03/31 11:25:07;;;;;;;1.30;1.20;;;5.40;99.90;;;;;;5055723;28;20108;-78
2022/03/31 11:27:37;;;;;;;1.45;1.25;;;5.60;99.90;;;;;;5055272;28;20036;-81
2022/03/31 11:30:12;;;;;;;1.52;1.10;;;5.80;99.90;;;;;;5054705;28;20408;-82
2022/03/31 11:32:39;;;;;;;1.10;1.00;;;5.80;99.80;;;;;;5052106;28;20460;-81
2022/03/31 11:35:12;;;;;;;2.10;1.50;;;5.70;99.90;;;;;;5052674;28;20032;-76
2022/03/31 11:37:45;;;;;;;;;;;5.70;99.90;;;;;;5045431;28;20029;-72
2022/03/31 11:40:19;;;;;;;1.95;1.52;;;5.80;99.90;;;;;;5055378;28;19909;-79
2022/03/31 11:42:46;;;;;;;2.17;1.63;;;5.80;99.90;;;;;;5056530;28;20068;-77
2022/03/31 11:45:24;;;;;;;2.70;1.60;;;5.70;99.90;;;;;;5055876;28;20021;-77
2022/03/31 11:48:20;;;;;;;1.75;1.55;;;5.60;99.90;;;;;;5056235;28;20036;-77
2022/03/31 11:50:53;;;;;;;1.98;1.17;;;5.80;99.90;;;;;;5053991;28;20112;-77
2022/03/31 11:53:23;;;;;;;1.60;1.00;;;5.80;99.90;;;;;;5054997;28;20423;-77
2022/03/31 11:56:09;;;;;;;1.40;1.00;;;5.90;99.90;;;;;;5053614;28;20071;-80
2022/03/31 11:58:51;;;;;;;1.20;0.98;;;6.00;99.90;;;;;;5053633;28;20033;-80
2022/03/31 12:01:22;;;;;;;0.93;0.82;;;6.10;99.60;;;;;;5055535;28;20118;-80
2022/03/31 12:03:48;;;;;;;1.73;1.10;;;6.00;99.50;;;;;;5056545;28;20025;-79
2022/03/31 12:06:15;;;;;;;1.98;1.00;;;5.80;99.60;;;;;;5055438;28;20380;-78
2022/03/31 12:08:42;;;;;;;1.13;0.68;;;5.80;99.90;;;;;;5055827;28;20029;-78
2022/03/31 12:11:08;;;;;;;1.35;0.70;;;5.90;99.90;;;;;;5055036;28;20048;-79
2022/03/31 12:14:00;;;;;;;1.00;0.90;;;6.00;99.90;;;;;;5055528;28;20100;-79
2022/03/31 12:16:26;;;;;;;1.30;0.77;;;5.90;99.90;;;;;;5055921;28;20024;-79
2022/03/31 12:18:57;;;;;;;0.85;0.60;;;5.90;99.90;;;;;;5055104;28;20334;-85
2022/03/31 12:21:25;;;;;;;0.85;0.60;;;5.90;99.90;;;;;;5055459;28;20103;-78
2022/03/31 12:23:52;;;;;;;0.80;0.45;;;5.70;99.90;;;;;;5055464;28;20383;-80
2022/03/31 12:26:21;;;;;;;1.15;0.52;;;5.60;99.90;;;;;;5053750;28;20021;-79
2022/03/31 12:28:47;;;;;;;1.33;0.60;;;5.60;99.90;;;;;;5055469;28;20029;-76
2022/03/31 12:31:29;;;;;;;0.95;0.60;;;5.70;99.90;;;;;;5054725;28;20038;-88
2022/03/31 12:33:56;;;;;;;0.90;0.70;;;5.60;99.90;;;;;;5071286;28;20040;-80
2022/03/31 12:36:27;;;;;;;0.77;0.47;;;5.50;99.90;;;;;;5059176;28;20029;-76
2022/03/31 12:38:55;;;;;;;0.80;0.60;;;5.40;99.90;;;;;;5052515;28;20461;-78
2022/03/31 12:41:36;;;;;;;0.70;0.60;;;5.40;99.90;;;;;;5053911;28;20041;-75
2022/03/31 12:44:15;;;;;;;0.90;0.70;;;5.50;99.90;;;;;;5054026;28;20060;-75
2022/03/31 12:46:53;;;;;;;2.25;0.60;;;5.60;99.90;;;;;;5052714;28;20421;-76
2022/03/31 12:49:20;;;;;;;0.82;0.50;;;5.60;99.90;;;;;;5055157;28;20121;-75
2022/03/31 12:51:49;;;;;;;0.60;0.47;;;5.50;99.90;;;;;;5055096;28;20052;-75
2022/03/31 12:54:34;;;;;;;0.68;0.50;;;5.40;99.90;;;;;;5055006;28;20186;-76
2022/03/31 12:57:13;;;;;;;0.50;0.40;;;5.50;99.90;;;;;;5055127;28;20040;-76
2022/03/31 12:59:41;;;;;;;0.80;0.60;;;5.50;99.90;;;;;;5054375;28;20029;-76
2022/03/31 13:02:13;;;;;;;0.60;0.40;;;5.50;99.90;;;;;;5053870;28;20091;-77
2022/03/31 13:04:43;;;;;;;0.50;0.40;;;5.60;99.90;;;;;;5053710;28;20476;-76
2022/03/31 13:07:16;;;;;;;0.68;0.40;;;5.60;99.90;;;;;;5053951;28;20071;-77
2022/03/31 13:09:43;;;;;;;0.52;0.30;;;5.50;99.90;;;;;;5053358;28;20396;-76
2022/03/31 13:12:10;;;;;;;0.50;0.35;;;5.50;99.90;;;;;;5053534;28;20045;-77
2022/03/31 13:14:43;;;;;;;0.50;0.30;;;5.70;99.90;;;;;;5052213;28;20380;-82
2022/03/31 13:17:10;;;;;;;0.60;0.30;;;5.60;99.90;;;;;;5043192;28;20430;-83
2022/03/31 13:19:36;;;;;;;1.27;0.20;;;5.70;99.90;;;;;;5054168;28;20025;-81